Lexington, Alabama
Current Conditions -  °F | °C
As of 2:53 PM on Monday 22 Dec 2014 (Local Time) from KMSL Reporting Station
Overcast Overcast  
Wind Chill: 53°   Ceiling: 700
Heat Index: 53°   Visibility: 9mi
Dew Point: 49°   Wind: 7mph
Humidity: 86%   Direction: 150°SSE
Pressure: 29.76"   Gusts: NA
Location:  34.97°N, 87.37°W
Report Text: KMSL 222053Z AUTO 15006KT 9SM OVC007 12/09 A2976 RMK AO2 SLP078 60000 T01170094 56026
Loading
Personal Weather Stations






























Interactive Weather Map New forecast layout! Learn more

10-Day Weather Forecast

Advertisements
Track Severe Weather on mobile